createdAt,value
2018-11-26T00:01:44.202Z,20.20
2018-11-26T00:04:11.097Z,20.21
2018-11-26T00:06:38.068Z,20.20
2018-11-26T00:09:05.072Z,20.20
2018-11-26T00:11:32.108Z,20.19
2018-11-26T00:13:59.100Z,20.19
2018-11-26T00:16:25.999Z,20.20
2018-11-26T00:18:52.894Z,20.21
2018-11-26T00:21:19.778Z,20.19
2018-11-26T00:23:46.661Z,20.19
2018-11-26T00:26:13.554Z,20.20
2018-11-26T00:28:40.444Z,20.20
2018-11-26T00:31:07.347Z,20.20
2018-11-26T00:33:34.248Z,20.19
2018-11-26T00:36:01.146Z,20.20
2018-11-26T00:38:28.029Z,20.19
2018-11-26T00:40:54.943Z,20.19
2018-11-26T00:43:21.830Z,20.19
2018-11-26T00:45:48.751Z,20.20
2018-11-26T00:48:15.640Z,20.19
2018-11-26T00:50:42.547Z,20.19
2018-11-26T00:53:09.455Z,20.20
2018-11-26T00:55:36.343Z,20.19
2018-11-26T00:58:03.242Z,20.19
2018-11-26T01:00:30.139Z,20.18
2018-11-26T01:02:57.050Z,20.19
2018-11-26T01:05:23.930Z,20.19
2018-11-26T01:07:50.810Z,20.19
2018-11-26T01:10:17.694Z,20.19
2018-11-26T01:12:44.580Z,20.19
2018-11-26T01:15:11.470Z,20.20
2018-11-26T01:17:38.344Z,20.20
2018-11-26T01:20:05.266Z,20.21
2018-11-26T01:22:32.153Z,20.21
2018-11-26T01:24:59.043Z,20.22
2018-11-26T01:27:25.938Z,20.21
2018-11-26T01:29:52.859Z,20.21
2018-11-26T01:32:19.806Z,20.21
2018-11-26T01:34:46.707Z,20.21
2018-11-26T01:37:13.622Z,20.21
2018-11-26T01:39:40.510Z,20.22
2018-11-26T01:42:07.403Z,20.22
2018-11-26T01:44:34.298Z,20.21
2018-11-26T01:47:01.202Z,20.21
2018-11-26T01:49:28.092Z,20.22
2018-11-26T01:51:54.977Z,20.22
2018-11-26T01:54:21.881Z,20.22
2018-11-26T01:56:48.804Z,20.21
2018-11-26T01:59:15.693Z,20.21
2018-11-26T02:01:42.583Z,20.21
2018-11-26T02:04:09.470Z,20.23
2018-11-26T02:06:36.377Z,20.21
2018-11-26T02:09:03.350Z,20.22
2018-11-26T02:11:30.252Z,20.21
2018-11-26T02:13:57.141Z,20.21
2018-11-26T02:16:24.075Z,20.21
2018-11-26T02:18:50.979Z,20.21
2018-11-26T02:21:17.867Z,20.12
2018-11-26T02:23:44.775Z,20.21
2018-11-26T02:26:11.666Z,20.22
2018-11-26T02:28:38.545Z,20.22
2018-11-26T02:31:05.437Z,20.22
2018-11-26T02:33:32.391Z,20.22
2018-11-26T02:35:59.290Z,20.21
2018-11-26T02:38:26.196Z,20.22
2018-11-26T02:40:53.091Z,20.22
2018-11-26T02:43:19.978Z,20.21
2018-11-26T02:45:46.862Z,20.22
2018-11-26T02:48:13.754Z,20.21
2018-11-26T02:50:40.679Z,20.22
2018-11-26T02:53:07.583Z,20.22
2018-11-26T02:55:34.465Z,20.21
2018-11-26T02:58:01.371Z,20.22
2018-11-26T03:00:28.270Z,20.21
2018-11-26T03:02:55.175Z,20.21
2018-11-26T03:05:22.110Z,20.22
2018-11-26T03:07:49.148Z,20.21
2018-11-26T03:10:16.043Z,20.21
2018-11-26T03:12:42.959Z,20.22
2018-11-26T03:15:09.862Z,20.21
2018-11-26T03:17:36.750Z,20.22
2018-11-26T03:20:03.643Z,20.22
2018-11-26T03:22:30.521Z,20.22
2018-11-26T03:24:57.407Z,20.21
2018-11-26T03:27:24.302Z,20.21
2018-11-26T03:29:51.215Z,20.21
2018-11-26T03:32:18.101Z,20.20
2018-11-26T03:34:45.000Z,20.22
2018-11-26T03:37:11.896Z,20.22
2018-11-26T03:39:38.799Z,20.21
2018-11-26T03:42:05.690Z,20.21
2018-11-26T03:44:32.580Z,20.20
2018-11-26T03:46:59.475Z,20.21
2018-11-26T03:49:26.369Z,20.21
2018-11-26T03:51:53.258Z,20.21
2018-11-26T03:54:20.174Z,20.21
2018-11-26T03:56:47.199Z,20.22
2018-11-26T03:59:14.094Z,20.22
2018-11-26T04:01:41.035Z,20.21
2018-11-26T04:04:07.927Z,20.20
2018-11-26T04:06:34.826Z,20.21
2018-11-26T04:09:01.714Z,20.21
2018-11-26T04:11:28.593Z,20.21
2018-11-26T04:13:55.482Z,20.21
2018-11-26T04:16:22.416Z,20.21
2018-11-26T04:18:49.316Z,20.22
2018-11-26T04:21:16.201Z,20.21
2018-11-26T04:23:43.110Z,20.21
2018-11-26T04:26:10.011Z,20.21
2018-11-26T04:28:36.915Z,20.21
2018-11-26T04:31:03.822Z,20.21
2018-11-26T04:33:30.712Z,20.21
2018-11-26T04:35:57.925Z,20.21
2018-11-26T04:38:24.945Z,20.20
2018-11-26T04:40:51.921Z,20.21
2018-11-26T04:43:18.941Z,20.21
2018-11-26T04:45:46.112Z,20.22
2018-11-26T04:48:13.049Z,20.21
2018-11-26T04:50:39.950Z,20.20
2018-11-26T04:53:07.172Z,20.22
2018-11-26T04:55:34.112Z,20.21
2018-11-26T04:58:01.037Z,20.21
2018-11-26T05:00:28.237Z,20.21
2018-11-26T05:02:55.256Z,20.21
2018-11-26T05:05:22.183Z,20.20
2018-11-26T05:07:49.094Z,20.20
2018-11-26T05:10:16.058Z,20.21
2018-11-26T05:12:43.016Z,20.21
2018-11-26T05:15:09.907Z,20.21
2018-11-26T05:17:36.807Z,20.22
2018-11-26T05:20:03.735Z,20.21
2018-11-26T05:22:30.619Z,20.21
2018-11-26T05:24:57.498Z,20.23
2018-11-26T05:27:24.465Z,20.22
2018-11-26T05:29:51.375Z,20.21
2018-11-26T05:32:18.275Z,20.22
2018-11-26T05:34:45.166Z,20.22
2018-11-26T05:37:12.068Z,20.21
2018-11-26T05:39:38.967Z,20.21
2018-11-26T05:42:05.850Z,20.21
2018-11-26T05:44:32.754Z,20.22
2018-11-26T05:46:59.653Z,20.23
2018-11-26T05:49:26.556Z,20.23
2018-11-26T05:51:53.466Z,20.21
2018-11-26T05:54:20.354Z,20.21
2018-11-26T05:56:47.270Z,20.21
2018-11-26T05:59:14.197Z,20.21
2018-11-26T06:01:41.092Z,20.21
2018-11-26T06:04:07.986Z,20.21
2018-11-26T06:06:34.885Z,20.22
2018-11-26T06:09:01.782Z,20.20
2018-11-26T06:11:28.683Z,20.20
2018-11-26T06:13:55.612Z,20.22
2018-11-26T06:16:22.533Z,20.21
2018-11-26T06:18:49.437Z,20.21
2018-11-26T06:21:16.338Z,20.21
2018-11-26T06:23:43.235Z,20.20
2018-11-26T06:26:10.132Z,20.22
2018-11-26T06:28:37.022Z,20.22
2018-11-26T06:31:04.015Z,20.20
2018-11-26T06:33:30.907Z,20.22
2018-11-26T06:35:57.798Z,20.22
2018-11-26T06:38:24.704Z,20.21
2018-11-26T06:40:51.594Z,20.21
2018-11-26T06:43:18.499Z,20.21
2018-11-26T06:45:45.387Z,20.20
2018-11-26T06:48:12.281Z,20.20
2018-11-26T06:50:39.200Z,20.21
2018-11-26T06:53:06.093Z,20.20
2018-11-26T06:55:33.000Z,20.20
2018-11-26T06:57:59.881Z,20.21
2018-11-26T07:00:26.803Z,20.20
2018-11-26T07:02:53.703Z,20.20
2018-11-26T07:05:20.848Z,20.20
2018-11-26T07:07:47.809Z,20.21
2018-11-26T07:10:14.713Z,20.20
2018-11-26T07:12:41.634Z,20.20
2018-11-26T07:15:08.547Z,20.20
2018-11-26T07:17:35.458Z,20.20
2018-11-26T07:20:02.348Z,20.20
2018-11-26T07:22:29.258Z,20.20
2018-11-26T07:24:56.142Z,20.21
2018-11-26T07:27:23.017Z,20.20
2018-11-26T07:29:49.915Z,20.20
2018-11-26T07:32:16.817Z,20.21
2018-11-26T07:34:43.713Z,20.20
2018-11-26T07:37:10.623Z,20.20
2018-11-26T07:39:37.545Z,20.20
2018-11-26T07:42:04.467Z,20.21
2018-11-26T07:44:31.356Z,20.20
2018-11-26T07:46:58.271Z,20.18
2018-11-26T07:49:25.190Z,20.15
2018-11-26T07:51:52.078Z,20.10
2018-11-26T07:54:18.958Z,20.15
2018-11-26T07:56:45.872Z,20.17
2018-11-26T07:59:12.760Z,20.18
2018-11-26T08:01:39.641Z,20.16
2018-11-26T08:04:06.553Z,20.18
2018-11-26T08:06:33.441Z,20.19
2018-11-26T08:09:00.333Z,20.19
2018-11-26T08:11:27.258Z,20.19
2018-11-26T08:13:54.159Z,20.19
2018-11-26T08:16:21.080Z,20.19
2018-11-26T08:18:47.983Z,20.19
2018-11-26T08:21:14.867Z,20.19
2018-11-26T08:23:41.760Z,20.20
2018-11-26T08:26:08.673Z,20.20
2018-11-26T08:28:35.561Z,20.20
2018-11-26T08:31:02.464Z,20.19
2018-11-26T08:33:29.360Z,20.19
2018-11-26T08:36:01.682Z,20.21
2018-11-26T08:38:33.864Z,20.19
2018-11-26T08:41:06.104Z,20.19
2018-11-26T08:43:35.817Z,20.18
2018-11-26T08:46:09.245Z,20.19
2018-11-26T08:48:36.270Z,20.19
2018-11-26T08:51:03.294Z,20.19
2018-11-26T08:53:30.311Z,20.19
2018-11-26T08:55:57.363Z,20.18
2018-11-26T08:58:24.381Z,20.19
2018-11-26T09:00:56.758Z,20.20
2018-11-26T09:03:23.788Z,20.19
2018-11-26T09:06:00.226Z,20.19
2018-11-26T09:08:27.207Z,20.20
2018-11-26T09:10:54.165Z,20.19
2018-11-26T09:13:21.067Z,20.19
2018-11-26T09:15:48.053Z,20.18
2018-11-26T09:18:15.032Z,20.19
2018-11-26T09:20:42.023Z,20.19
2018-11-26T09:23:09.514Z,20.19
2018-11-26T09:25:36.463Z,20.18
2018-11-26T09:28:03.424Z,20.19
2018-11-26T09:30:30.427Z,20.18
2018-11-26T09:32:57.327Z,20.19
2018-11-26T09:35:24.315Z,20.19
2018-11-26T09:37:51.211Z,20.18
2018-11-26T09:40:18.130Z,20.19
2018-11-26T09:42:45.041Z,20.19
2018-11-26T09:45:11.976Z,20.18
2018-11-26T09:47:38.861Z,20.18
2018-11-26T09:50:05.754Z,20.17
2018-11-26T09:52:32.655Z,20.18
2018-11-26T09:54:59.555Z,18.78
2018-11-26T09:57:26.440Z,18.43
2018-11-26T09:59:53.344Z,19.05
2018-11-26T10:02:20.265Z,19.34
2018-11-26T10:04:47.160Z,19.49
2018-11-26T10:07:14.053Z,19.60
2018-11-26T10:09:40.939Z,19.67
2018-11-26T10:12:07.846Z,19.70
2018-11-26T10:14:34.737Z,19.74
2018-11-26T10:17:01.630Z,19.77
2018-11-26T10:19:28.620Z,19.80
2018-11-26T10:21:55.492Z,19.81
2018-11-26T10:24:22.378Z,19.84
2018-11-26T10:26:49.261Z,19.85
2018-11-26T10:29:16.269Z,19.85
2018-11-26T10:31:43.173Z,19.87
2018-11-26T10:34:10.058Z,19.88
2018-11-26T10:36:36.946Z,19.89
2018-11-26T10:39:04.519Z,19.89
2018-11-26T10:41:31.398Z,19.90
2018-11-26T10:43:58.304Z,19.91
2018-11-26T10:46:25.189Z,19.91
2018-11-26T10:48:52.108Z,19.92
2018-11-26T10:51:19.069Z,19.93
2018-11-26T10:53:45.950Z,19.94
2018-11-26T10:56:12.841Z,19.94
2018-11-26T10:58:39.725Z,19.94
2018-11-26T11:01:11.989Z,19.95
2018-11-26T11:03:38.873Z,19.95
2018-11-26T11:06:05.753Z,19.96
2018-11-26T11:08:32.638Z,19.95
2018-11-26T11:10:59.635Z,19.95
2018-11-26T11:13:26.504Z,19.92
2018-11-26T11:15:53.413Z,19.96
2018-11-26T11:18:20.292Z,19.97
2018-11-26T11:20:47.177Z,19.97
2018-11-26T11:23:14.067Z,19.97
2018-11-26T11:25:40.959Z,19.97
2018-11-26T11:28:07.855Z,19.98
2018-11-26T11:30:34.844Z,19.98
2018-11-26T11:35:27.812Z,19.98
2018-11-26T11:37:55.142Z,19.98
2018-11-26T11:40:22.034Z,19.99
2018-11-26T11:42:49.010Z,20.00
2018-11-26T11:45:15.955Z,20.00
2018-11-26T11:47:42.876Z,20.01
2018-11-26T11:50:09.785Z,20.00
2018-11-26T11:52:36.707Z,20.01
2018-11-26T11:55:03.619Z,20.01
2018-11-26T11:57:30.515Z,20.01
2018-11-26T11:59:57.512Z,20.02
2018-11-26T12:02:24.469Z,20.02
2018-11-26T12:04:51.380Z,20.02
2018-11-26T12:07:18.318Z,20.02
2018-11-26T12:09:45.510Z,20.02
2018-11-26T12:12:12.443Z,20.01
2018-11-26T12:14:39.609Z,20.02
2018-11-26T12:17:06.540Z,20.02
2018-11-26T12:19:33.777Z,20.01
2018-11-26T12:22:00.680Z,20.03
2018-11-26T12:24:27.792Z,20.02
2018-11-26T12:26:54.805Z,20.02
2018-11-26T12:29:22.005Z,20.03
2018-11-26T12:31:48.924Z,20.03
2018-11-26T12:34:16.097Z,20.03
2018-11-26T12:36:43.051Z,20.03
2018-11-26T12:39:10.197Z,20.04
2018-11-26T12:41:37.109Z,20.03
2018-11-26T12:44:04.310Z,20.02
2018-11-26T12:46:31.477Z,20.03
2018-11-26T12:48:58.387Z,20.04
2018-11-26T12:51:25.560Z,20.04
2018-11-26T12:53:52.476Z,20.04
2018-11-26T12:56:19.662Z,20.03
2018-11-26T12:58:46.560Z,20.04
2018-11-26T13:01:13.751Z,20.05
2018-11-26T13:03:40.680Z,20.03
2018-11-26T13:06:07.873Z,20.03
2018-11-26T13:08:34.796Z,20.03
2018-11-26T13:11:01.972Z,20.04
2018-11-26T13:13:28.890Z,20.04
2018-11-26T13:15:56.077Z,20.04
2018-11-26T13:18:22.993Z,20.05
2018-11-26T13:20:49.945Z,20.05
2018-11-26T13:23:16.852Z,20.06
2018-11-26T13:25:43.769Z,20.06
2018-11-26T13:28:10.678Z,20.06
2018-11-26T13:30:37.571Z,20.07
2018-11-26T13:33:04.475Z,20.07
2018-11-26T13:35:31.396Z,20.07
2018-11-26T13:37:58.286Z,20.08
2018-11-26T13:40:25.225Z,20.07
2018-11-26T13:42:52.137Z,20.07
2018-11-26T13:45:19.046Z,20.08
2018-11-26T13:47:45.952Z,20.07
2018-11-26T13:50:12.847Z,20.07
2018-11-26T13:52:39.752Z,20.07
2018-11-26T13:55:06.651Z,20.07
2018-11-26T13:57:33.588Z,20.07
2018-11-26T14:00:00.485Z,20.07
2018-11-26T14:02:27.388Z,20.06
2018-11-26T14:04:54.307Z,20.06
2018-11-26T14:07:21.194Z,20.06
2018-11-26T14:09:48.092Z,20.06
2018-11-26T14:12:15.021Z,20.06
2018-11-26T14:14:41.919Z,20.06
2018-11-26T14:17:08.842Z,20.06
2018-11-26T14:19:35.740Z,20.06
2018-11-26T14:22:02.675Z,20.05
2018-11-26T14:24:29.884Z,20.06
2018-11-26T14:26:56.775Z,20.06
2018-11-26T14:29:23.675Z,20.07
2018-11-26T14:31:50.569Z,20.06
2018-11-26T14:34:17.462Z,20.06
2018-11-26T14:36:44.356Z,20.06
2018-11-26T14:39:11.271Z,20.06
2018-11-26T14:41:38.177Z,20.06
2018-11-26T14:44:05.086Z,20.06
2018-11-26T14:46:31.986Z,20.06
2018-11-26T14:48:58.898Z,20.05
2018-11-26T14:51:25.782Z,20.05
2018-11-26T14:53:52.674Z,20.06
2018-11-26T14:56:19.578Z,20.05
2018-11-26T14:58:46.523Z,20.06
2018-11-26T15:01:13.420Z,20.06
2018-11-26T15:03:40.340Z,20.05
2018-11-26T15:06:07.244Z,20.06
2018-11-26T15:08:34.144Z,20.04
2018-11-26T15:11:01.048Z,20.04
2018-11-26T15:13:27.950Z,20.05
2018-11-26T15:15:54.851Z,20.04
2018-11-26T15:18:21.751Z,20.06
2018-11-26T15:20:48.665Z,20.05
2018-11-26T15:23:15.637Z,20.07
2018-11-26T15:25:42.520Z,19.83
2018-11-26T15:28:09.417Z,20.08
2018-11-26T15:30:36.324Z,20.08
2018-11-26T15:33:03.223Z,20.08
2018-11-26T15:35:30.113Z,20.07
2018-11-26T15:37:57.031Z,20.07
2018-11-26T15:40:23.933Z,20.07
2018-11-26T15:42:50.867Z,20.07
2018-11-26T15:45:17.767Z,20.07
2018-11-26T15:47:44.730Z,20.07
2018-11-26T15:50:11.628Z,20.07
2018-11-26T15:52:38.551Z,20.07
2018-11-26T15:55:05.473Z,20.07
2018-11-26T15:57:32.369Z,20.07
2018-11-26T15:59:59.302Z,20.07
2018-11-26T16:02:26.195Z,20.06
2018-11-26T16:04:53.091Z,20.07
2018-11-26T16:07:19.979Z,20.06
2018-11-26T16:09:46.879Z,20.06
2018-11-26T16:12:14.451Z,20.07
2018-11-26T16:14:40.732Z,20.07
2018-11-26T16:17:07.669Z,20.07
2018-11-26T16:19:34.576Z,20.07
2018-11-26T16:22:01.488Z,20.07
2018-11-26T16:24:28.389Z,20.07
2018-11-26T16:26:55.280Z,20.07
2018-11-26T16:29:22.254Z,20.06
2018-11-26T16:31:49.171Z,20.06
2018-11-26T16:34:16.072Z,20.07
2018-11-26T16:36:43.021Z,20.07
2018-11-26T16:39:10.014Z,20.06
2018-11-26T16:41:36.921Z,20.07
2018-11-26T16:44:03.824Z,20.07
2018-11-26T16:46:30.720Z,20.07
2018-11-26T16:48:57.616Z,20.08
2018-11-26T16:51:24.506Z,20.07
2018-11-26T16:53:51.396Z,20.06
2018-11-26T16:56:18.297Z,20.06
2018-11-26T16:58:45.196Z,20.07
2018-11-26T17:01:12.093Z,20.06
2018-11-26T17:03:39.008Z,20.06
2018-11-26T17:06:05.910Z,20.06
2018-11-26T17:08:32.806Z,20.06
2018-11-26T17:10:59.695Z,20.06
2018-11-26T17:13:26.635Z,20.06
2018-11-26T17:15:53.545Z,20.06
2018-11-26T17:18:20.463Z,20.07
2018-11-26T17:20:47.355Z,20.06
2018-11-26T17:23:14.255Z,20.06
2018-11-26T17:25:41.155Z,20.04
2018-11-26T17:28:08.109Z,20.06
2018-11-26T17:30:35.013Z,20.06
2018-11-26T17:33:02.297Z,20.04
2018-11-26T17:35:29.194Z,20.05
2018-11-26T17:37:56.091Z,20.06
2018-11-26T17:40:23.139Z,20.05
2018-11-26T17:42:50.496Z,20.06
2018-11-26T17:45:17.919Z,20.05
2018-11-26T17:47:44.846Z,20.05
2018-11-26T17:50:11.743Z,20.05
2018-11-26T17:52:38.639Z,20.05
2018-11-26T17:55:05.538Z,20.04
2018-11-26T17:57:32.423Z,20.04
2018-11-26T17:59:59.352Z,20.05
2018-11-26T18:02:26.251Z,20.06
2018-11-26T18:04:53.152Z,20.05
2018-11-26T18:07:20.051Z,20.04
2018-11-26T18:09:46.937Z,20.05
2018-11-26T18:12:13.841Z,20.06
2018-11-26T18:14:40.753Z,20.07
2018-11-26T18:17:07.690Z,20.06
2018-11-26T18:19:34.584Z,20.06
2018-11-26T18:22:01.511Z,20.07
2018-11-26T18:24:28.426Z,20.06
2018-11-26T18:26:55.328Z,19.98
2018-11-26T18:29:22.224Z,20.06
2018-11-26T18:31:49.178Z,20.06
2018-11-26T18:34:16.088Z,20.07
2018-11-26T18:36:42.999Z,20.07
2018-11-26T18:39:09.903Z,20.08
2018-11-26T18:41:36.805Z,20.08
2018-11-26T18:44:03.701Z,20.09
2018-11-26T18:46:30.595Z,20.10
2018-11-26T18:48:57.482Z,20.09
2018-11-26T18:51:24.381Z,20.10
2018-11-26T18:53:51.275Z,20.11
2018-11-26T18:56:18.191Z,20.12
2018-11-26T18:58:45.078Z,20.13
2018-11-26T19:01:11.985Z,20.13
2018-11-26T19:03:38.879Z,20.16
2018-11-26T19:06:05.791Z,20.15
2018-11-26T19:08:32.686Z,20.17
2018-11-26T19:10:59.588Z,17.19
2018-11-26T19:13:26.502Z,16.23
2018-11-26T19:15:53.408Z,15.65
2018-11-26T19:18:20.311Z,15.47
2018-11-26T19:20:47.210Z,15.18
2018-11-26T19:23:14.120Z,14.79
2018-11-26T19:25:41.031Z,14.43
2018-11-26T19:28:07.945Z,14.18
2018-11-26T19:30:34.872Z,14.04
2018-11-26T19:33:01.794Z,13.98
2018-11-26T19:35:28.706Z,13.89
2018-11-26T19:37:55.622Z,13.73
2018-11-26T19:40:22.558Z,13.53
2018-11-26T19:42:49.450Z,14.14
2018-11-26T19:45:16.431Z,15.63
2018-11-26T19:47:43.368Z,16.51
2018-11-26T19:50:10.326Z,17.52
2018-11-26T19:52:37.233Z,17.89
2018-11-26T19:55:04.176Z,18.16
2018-11-26T19:57:31.066Z,18.37
2018-11-26T19:59:57.977Z,18.44
2018-11-26T20:02:24.879Z,18.56
2018-11-26T20:04:51.772Z,18.61
2018-11-26T20:07:18.666Z,18.62
2018-11-26T20:09:45.573Z,18.66
2018-11-26T20:12:12.480Z,18.69
2018-11-26T20:14:39.367Z,18.72
2018-11-26T20:17:06.326Z,18.75
2018-11-26T20:19:33.226Z,18.79
2018-11-26T20:22:00.117Z,18.94
2018-11-26T20:24:27.019Z,19.02
2018-11-26T20:26:53.918Z,19.10
2018-11-26T20:29:20.828Z,19.14
2018-11-26T20:31:47.727Z,19.23
2018-11-26T20:34:14.667Z,19.24
2018-11-26T20:36:41.554Z,19.27
2018-11-26T20:39:08.462Z,19.30
2018-11-26T20:41:35.360Z,19.30
2018-11-26T20:44:02.259Z,19.30
2018-11-26T20:46:29.168Z,19.32
2018-11-26T20:48:56.072Z,19.33
2018-11-26T20:51:22.991Z,19.34
2018-11-26T20:53:49.898Z,19.38
2018-11-26T20:56:16.793Z,19.36
2018-11-26T20:58:43.684Z,19.40
2018-11-26T21:01:10.679Z,19.42
2018-11-26T21:03:37.605Z,19.48
2018-11-26T21:06:04.521Z,19.52
2018-11-26T21:08:31.424Z,19.51
2018-11-26T21:10:58.334Z,19.51
2018-11-26T21:13:25.246Z,19.54
2018-11-26T21:15:52.186Z,19.58
2018-11-26T21:18:19.116Z,19.56
2018-11-26T21:20:46.052Z,19.61
2018-11-26T21:23:14.194Z,19.59
2018-11-26T21:25:39.979Z,19.62
2018-11-26T21:28:06.895Z,19.63
2018-11-26T21:30:33.812Z,19.63
2018-11-26T21:33:00.729Z,19.66
2018-11-26T21:35:27.653Z,19.68
2018-11-26T21:37:54.587Z,19.68
2018-11-26T21:40:21.494Z,19.72
2018-11-26T21:42:48.428Z,19.71
2018-11-26T21:45:15.343Z,19.72
2018-11-26T21:47:42.264Z,19.73
2018-11-26T21:50:09.167Z,19.75
2018-11-26T21:52:36.076Z,19.77
2018-11-26T21:55:02.992Z,19.78
2018-11-26T21:57:29.903Z,19.80
2018-11-26T21:59:56.822Z,19.79
2018-11-26T22:02:23.724Z,19.82
2018-11-26T22:04:51.001Z,19.80
2018-11-26T22:07:17.940Z,19.80
2018-11-26T22:09:44.859Z,19.82
2018-11-26T22:12:11.782Z,19.82
2018-11-26T22:14:38.798Z,19.84
2018-11-26T22:17:05.714Z,19.85
2018-11-26T22:19:32.632Z,19.88
2018-11-26T22:21:59.538Z,19.87
2018-11-26T22:24:26.464Z,19.88
2018-11-26T22:26:53.460Z,19.88
2018-11-26T22:29:20.495Z,19.88
2018-11-26T22:31:47.427Z,19.88
2018-11-26T22:34:14.385Z,19.88
2018-11-26T22:36:41.282Z,19.90
2018-11-26T22:39:08.233Z,19.89
2018-11-26T22:41:35.122Z,19.91
2018-11-26T22:44:02.044Z,19.91
2018-11-26T22:46:29.203Z,19.92
2018-11-26T22:48:56.099Z,19.95
2018-11-26T22:51:22.991Z,19.95
2018-11-26T22:53:49.899Z,19.94
2018-11-26T22:56:16.848Z,19.95
2018-11-26T22:58:43.743Z,19.95
2018-11-26T23:01:10.645Z,19.95
2018-11-26T23:03:37.530Z,19.97
2018-11-26T23:06:04.449Z,19.97
2018-11-26T23:08:31.367Z,19.98
2018-11-26T23:10:58.320Z,19.98
2018-11-26T23:13:25.242Z,19.98
2018-11-26T23:15:52.138Z,19.97
2018-11-26T23:18:19.031Z,19.97
2018-11-26T23:20:45.936Z,19.99
2018-11-26T23:23:12.865Z,19.99
2018-11-26T23:25:39.763Z,19.97
2018-11-26T23:28:06.660Z,19.99
2018-11-26T23:30:33.559Z,20.00
2018-11-26T23:33:00.498Z,20.01
2018-11-26T23:35:27.410Z,20.01
2018-11-26T23:37:54.366Z,20.02
2018-11-26T23:40:21.291Z,20.03
2018-11-26T23:42:48.200Z,20.03
2018-11-26T23:45:15.133Z,20.01
2018-11-26T23:47:42.052Z,19.99
2018-11-26T23:50:08.951Z,20.01
2018-11-26T23:52:35.868Z,20.02
2018-11-26T23:55:02.775Z,20.03
2018-11-26T23:57:29.676Z,20.06
2018-11-26T23:59:56.587Z,20.06
